Nancy M — WDF3398 — position and weather

sailwx.info

Track history (hours):
 
Tides and Currents Weather Stations Pressure Air Temp Water Temp Dewpoint Dewpoint Depression Visibility Wind Speed Wind Dir Waves Ship Positions

Nancy M

Owner: MANSON CONSTRUCTION CO., SEATTLE, WA. More information available from US FCC via Universal Licensing System and Coast Guard Vessel Documentation Center.

Last reported at 2014-Dec-19 22:30 UTC. Time now 2014-Dec-21 01:55 UTC.
Position N 47°35' W 122°22'.

Length 24 m; draft 4 m.

Type: Tug. MMSI: 367439390.

Date/timePositionNaut miles runAvg speedWind from/ knotsBaromVisibWave heightAir tempDewpointWater temp
2014-Dec-19 22:30N 47°35' W 122°22'2 1.9
2014-Dec-19 21:33N 47°33' W 122°20'0 0.0
2014-Dec-19 20:34N 47°33' W 122°21'0 0.0
2014-Dec-19 19:34N 47°33' W 122°21'0 0.0
2014-Dec-19 18:33N 47°33' W 122°21'0 0.0
2014-Dec-19 17:34N 47°33' W 122°21'0 0.0
2014-Dec-19 16:33N 47°33' W 122°21'0 0.0
2014-Dec-19 15:33N 47°33' W 122°21'0 0.0
2014-Dec-19 14:34N 47°33' W 122°21'0 0.0
2014-Dec-19 07:27N 47°33' W 122°21'0 0.0
2014-Dec-19 06:33N 47°33' W 122°21'0 0.0
2014-Dec-19 05:33N 47°33' W 122°21'0 0.0
2014-Dec-19 04:33N 47°33' W 122°21'0 0.0
2014-Dec-19 03:28N 47°33' W 122°21'0 0.0
2014-Dec-19 02:27N 47°33' W 122°21'0 0.0
2014-Dec-19 01:32N 47°33' W 122°21'0 0.0
2014-Dec-19 00:32N 47°33' W 122°21'0 0.0
2014-Dec-18 23:23N 47°33' W 122°21'0 0.0
2014-Dec-18 22:32N 47°33' W 122°21'0 0.0
2014-Dec-18 21:33N 47°33' W 122°21'0 0.0
2014-Dec-18 20:30N 47°33' W 122°21'0 0.0
2014-Dec-18 19:27N 47°33' W 122°21'0 0.0
2014-Dec-18 18:32N 47°33' W 122°21'0 0.0
2014-Dec-18 17:32N 47°33' W 122°21'0 0.0
2014-Dec-18 16:32N 47°33' W 122°21'0 0.0
2014-Dec-18 15:32N 47°33' W 122°21'0 0.0
2014-Dec-18 14:33N 47°33' W 122°21'0 0.0
2014-Dec-18 13:32N 47°33' W 122°21'0 0.0
2014-Dec-18 12:29N 47°33' W 122°21'0 0.0
2014-Dec-18 11:32N 47°33' W 122°21'0 0.0
2014-Dec-18 10:30N 47°33' W 122°21'0 0.0
2014-Dec-18 09:32N 47°33' W 122°21'0 0.0
2014-Dec-18 08:31N 47°33' W 122°21'0 0.0
2014-Dec-18 07:33N 47°33' W 122°21'0 0.0
2014-Dec-18 06:22N 47°33' W 122°21'0 0.0
2014-Dec-18 05:23N 47°33' W 122°21'0 0.0
2014-Dec-18 04:32N 47°33' W 122°21'0 0.0
2014-Dec-18 02:28N 47°33' W 122°21'0 0.0
2014-Dec-18 01:30N 47°33' W 122°21'0 0.0
2014-Dec-18 00:33N 47°33' W 122°21'0 0.0
2014-Dec-17 23:33N 47°33' W 122°21'0 0.0
2014-Dec-17 22:33N 47°33' W 122°21'0 0.0
2014-Dec-17 21:32N 47°33' W 122°21'0 0.0
2014-Dec-17 20:33N 47°33' W 122°21'0 0.0
2014-Dec-17 19:32N 47°33' W 122°21'0 0.0
2014-Dec-17 18:26N 47°33' W 122°21'0 0.2
2014-Dec-17 17:33N 47°34' W 122°21'1 1.2
2014-Dec-17 16:31N 47°35' W 122°22'2 1.0
2014-Dec-17 14:33N 47°36' W 122°21'3 3.1
2014-Dec-17 13:33N 47°33' W 122°21'0 0.0
2014-Dec-17 12:33N 47°33' W 122°21'0 0.0
2014-Dec-17 11:33N 47°33' W 122°21'0 0.0
2014-Dec-17 10:33N 47°33' W 122°21'0 0.0
2014-Dec-17 09:33N 47°33' W 122°21'0 0.0
2014-Dec-17 08:32N 47°33' W 122°21'0 0.0
2014-Dec-17 07:33N 47°33' W 122°21'0 0.0
2014-Dec-17 06:32N 47°33' W 122°21'0 0.0
2014-Dec-17 05:32N 47°33' W 122°21'0 0.0
2014-Dec-17 04:33N 47°33' W 122°21'0 0.0
2014-Dec-17 03:33N 47°33' W 122°21'0 0.0
2014-Dec-17 02:33N 47°33' W 122°21'0 0.0
2014-Dec-17 01:33N 47°33' W 122°21'0 0.0
2014-Dec-17 00:33N 47°33' W 122°21'0 0.0
2014-Dec-16 23:33N 47°33' W 122°21'0 0.0
2014-Dec-16 22:33N 47°33' W 122°21'0 0.0
2014-Dec-16 21:32N 47°33' W 122°21'0 0.0
2014-Dec-16 20:31N 47°33' W 122°21'0 0.0
2014-Dec-16 19:33N 47°33' W 122°21'0 0.0
2014-Dec-16 18:32N 47°33' W 122°21'0 0.0
2014-Dec-16 17:33N 47°33' W 122°21'0 0.0
2014-Dec-16 16:33N 47°33' W 122°21'2 2.3
2014-Dec-16 15:33N 47°36' W 122°21'3 2.9
2014-Dec-16 14:34N 47°33' W 122°20'1 0.6
2014-Dec-16 13:28N 47°33' W 122°21'0 0.0
2014-Dec-16 12:12N 47°33' W 122°21'0 0.0
2014-Dec-16 11:30N 47°33' W 122°21'0 0.0
2014-Dec-16 10:33N 47°33' W 122°21'0 0.0
2014-Dec-16 09:15N 47°33' W 122°21'0 0.0
2014-Dec-16 08:07N 47°33' W 122°21'0 0.0
2014-Dec-16 07:11N 47°33' W 122°21'0 0.0
2014-Dec-16 02:30N 47°33' W 122°21'0 0.0
2014-Dec-16 01:22N 47°33' W 122°21'0 0.0
2014-Dec-15 23:31N 47°33' W 122°21'0 0.0
2014-Dec-15 22:32N 47°33' W 122°21'0 0.0
2014-Dec-15 21:29N 47°33' W 122°21'0 0.0
2014-Dec-15 20:31N 47°33' W 122°21'1 0.8
2014-Dec-15 19:33N 47°33' W 122°20'3 3.1
2014-Dec-15 18:33N 47°36' W 122°21'2 2.3
2014-Dec-15 17:33N 47°34' W 122°21'1 1.3
2014-Dec-15 16:33N 47°32' W 122°20'1 0.4
2014-Dec-15 13:31N 47°33' W 122°21'0 0.0
2014-Dec-15 12:32N 47°33' W 122°21'0 0.0
2014-Dec-15 11:32N 47°33' W 122°21'0 0.0
2014-Dec-15 10:33N 47°33' W 122°21'0 0.0
2014-Dec-15 09:29N 47°33' W 122°21'0 0.0
2014-Dec-15 08:14N 47°33' W 122°21'0 0.0
2014-Dec-15 06:20N 47°33' W 122°21'0 0.0
2014-Dec-15 05:33N 47°33' W 122°21'0 0.0
2014-Dec-15 04:16N 47°33' W 122°21'0 0.0
2014-Dec-15 03:04N 47°33' W 122°21'0 0.0
2014-Dec-15 02:06N 47°33' W 122°21'0 0.0
2014-Dec-15 01:20N 47°33' W 122°21'0 0.0
2014-Dec-15 00:33N 47°33' W 122°21'0 0.0
2014-Dec-14 23:32N 47°33' W 122°21'0 0.0
2014-Dec-14 21:33N 47°33' W 122°21'0 0.0
2014-Dec-14 20:33N 47°33' W 122°21'0 0.0
2014-Dec-14 19:27N 47°33' W 122°21'0 0.0
2014-Dec-14 18:32N 47°33' W 122°21'0 0.0
2014-Dec-14 17:31N 47°33' W 122°21'0 0.0
2014-Dec-14 13:32N 47°33' W 122°21'0 0.0
2014-Dec-14 12:31N 47°33' W 122°21'0 0.0
2014-Dec-14 11:32N 47°33' W 122°21'0 0.0
2014-Dec-14 10:29N 47°33' W 122°21'0 0.0
2014-Dec-14 09:33N 47°33' W 122°21'0 0.0
2014-Dec-14 08:26N 47°33' W 122°21'0 0.0
2014-Dec-14 07:24N 47°33' W 122°21'0 0.0
2014-Dec-14 06:26N 47°33' W 122°21'0 0.0
2014-Dec-14 05:19N 47°33' W 122°21'0 0.0
2014-Dec-14 04:32N 47°33' W 122°21'0 0.0
2014-Dec-14 03:31N 47°33' W 122°21'0 0.0
2014-Dec-14 02:33N 47°33' W 122°21'0 0.0
2014-Dec-14 00:29N 47°33' W 122°21'0 0.0
2014-Dec-13 23:29N 47°33' W 122°21'0 0.0
2014-Dec-13 22:31N 47°33' W 122°21'0 0.0
2014-Dec-13 21:31N 47°33' W 122°21'0 0.0
2014-Dec-13 20:33N 47°33' W 122°21'0 0.0
2014-Dec-13 18:26N 47°33' W 122°21'0 0.0
2014-Dec-13 17:31N 47°33' W 122°21'0 0.0
2014-Dec-13 16:22N 47°33' W 122°21'0 0.0
2014-Dec-13 15:32N 47°33' W 122°21'0 0.0
2014-Dec-13 14:32N 47°33' W 122°21'0 0.0
2014-Dec-13 13:30N 47°33' W 122°21'0 0.0
2014-Dec-13 12:31N 47°33' W 122°21'0 0.0
2014-Dec-13 10:18N 47°33' W 122°21'0 0.0
2014-Dec-13 09:33N 47°33' W 122°21'0 0.0
2014-Dec-13 08:33N 47°33' W 122°21'0 0.0
2014-Dec-13 07:33N 47°33' W 122°21'0 0.0
2014-Dec-13 06:27N 47°33' W 122°21'0 0.0
2014-Dec-13 05:33N 47°33' W 122°21'0 0.0
2014-Dec-13 04:31N 47°33' W 122°21'0 0.0
2014-Dec-13 03:33N 47°33' W 122°21'0 0.0
2014-Dec-13 02:33N 47°33' W 122°21'0 0.0
2014-Dec-13 01:22N 47°33' W 122°21'0 0.0
2014-Dec-13 00:25N 47°33' W 122°21'0 0.0
2014-Dec-12 23:33N 47°33' W 122°21'0 0.0
2014-Dec-12 22:21N 47°33' W 122°21'0 0.0
2014-Dec-12 21:32N 47°33' W 122°21'0 0.0
2014-Dec-12 20:33N 47°33' W 122°21'0 0.0
2014-Dec-12 19:33N 47°33' W 122°21'0 0.0
2014-Dec-12 18:17N 47°33' W 122°21'0 0.0
2014-Dec-12 17:28N 47°33' W 122°21'0 0.0
2014-Dec-12 15:33N 47°33' W 122°21'0 0.0
2014-Dec-12 14:30N 47°33' W 122°21'0 0.0
2014-Dec-12 13:32N 47°33' W 122°21'0 0.0
2014-Dec-12 12:33N 47°33' W 122°21'0 0.0
2014-Dec-12 09:33N 47°33' W 122°21'0 0.0
2014-Dec-12 08:33N 47°33' W 122°21'0 0.0
2014-Dec-12 07:29N 47°33' W 122°21'0 0.0
2014-Dec-12 06:33N 47°33' W 122°21'0 0.0
2014-Dec-12 05:27N 47°33' W 122°21'0 0.0
2014-Dec-12 04:27N 47°33' W 122°21'0 0.0
2014-Dec-12 03:28N 47°33' W 122°21'0 0.0
2014-Dec-12 02:30N 47°33' W 122°21'0 0.0
2014-Dec-12 01:29N 47°33' W 122°21'0 0.0
2014-Dec-12 00:23N 47°33' W 122°21'0 0.0
2014-Dec-11 23:33N 47°33' W 122°21'0 0.0
2014-Dec-11 22:30N 47°33' W 122°21'0 0.0
2014-Dec-11 21:33N 47°33' W 122°21'0 0.0
2014-Dec-11 20:31N 47°33' W 122°21'0 0.0
2014-Dec-11 19:31N 47°33' W 122°21'0 0.0
2014-Dec-11 18:31N 47°33' W 122°21'0 0.0
2014-Dec-11 17:33N 47°33' W 122°21'0 0.0
2014-Dec-11 16:29N 47°33' W 122°21'0 0.0
2014-Dec-11 15:30N 47°33' W 122°21'0 0.0
2014-Dec-11 14:32N 47°33' W 122°21'0 0.0
2014-Dec-11 13:30N 47°33' W 122°21'0 0.0
2014-Dec-11 12:33N 47°33' W 122°21'0 0.0
2014-Dec-11 11:33N 47°33' W 122°21'0 0.0
2014-Dec-11 10:33N 47°33' W 122°21'0 0.0
2014-Dec-11 09:33N 47°33' W 122°21'0 0.0
2014-Dec-11 08:30N 47°33' W 122°21'0 0.0
2014-Dec-11 07:28N 47°33' W 122°21'0 0.0
2014-Dec-11 06:33N 47°33' W 122°21'0 0.0
2014-Dec-11 05:33N 47°33' W 122°21'0 0.0
2014-Dec-11 04:33N 47°33' W 122°21'0 0.0
2014-Dec-11 03:31N 47°33' W 122°21'0 0.0
2014-Dec-11 02:32N 47°33' W 122°21'0 0.0
2014-Dec-11 01:32N 47°33' W 122°21'0 0.0
2014-Dec-11 00:31N 47°33' W 122°21'0 0.0
2014-Dec-10 23:33N 47°33' W 122°21'0 0.0
2014-Dec-10 22:27N 47°33' W 122°21'0 0.0
2014-Dec-10 21:28N 47°33' W 122°21'0 0.0
2014-Dec-10 20:28N 47°33' W 122°21'0 0.0
2014-Dec-10 19:31N 47°33' W 122°21'0 0.0
2014-Dec-10 18:33N 47°33' W 122°21'0 0.0
2014-Dec-10 17:33N 47°33' W 122°21'0 0.0
2014-Dec-10 16:33N 47°33' W 122°21'0 0.0
2014-Dec-10 15:32N 47°33' W 122°21'0 0.0
2014-Dec-10 14:32N 47°33' W 122°21'0 0.0
2014-Dec-10 13:33N 47°33' W 122°21'0 0.0
2014-Dec-10 12:33N 47°33' W 122°21'0 0.0
2014-Dec-10 11:32N 47°33' W 122°21'0 0.0
2014-Dec-10 09:30N 47°33' W 122°21'0 0.0
2014-Dec-10 08:10N 47°33' W 122°21'0 0.0
2014-Dec-10 07:33N 47°33' W 122°21'0 0.0
2014-Dec-10 06:33N 47°33' W 122°21'0 0.0
2014-Dec-10 05:31N 47°33' W 122°21'0 0.0
2014-Dec-10 04:17N 47°33' W 122°21'0 0.0
2014-Dec-10 03:31N 47°33' W 122°21'0 0.0
2014-Dec-10 02:19N 47°33' W 122°21'0 0.0
2014-Dec-10 01:26N 47°33' W 122°21'0 0.0
2014-Dec-10 00:31N 47°33' W 122°21'0 0.0
2014-Dec-09 23:33N 47°33' W 122°21'  
Track history (hours):
 
Tides and Currents Weather Stations Pressure Air Temp Water Temp Dewpoint Dewpoint Depression Visibility Wind Speed Wind Dir Waves Ship Positions

Nancy M

Owner: MANSON CONSTRUCTION CO., SEATTLE, WA. More information available from US FCC via Universal Licensing System and Coast Guard Vessel Documentation Center.

Last reported at 2014-Dec-19 22:30 UTC. Time now 2014-Dec-21 01:55 UTC.
Position N 47°35' W 122°22'.

Length 24 m; draft 4 m.

Type: Tug. MMSI: 367439390.

Date/timePositionNaut miles runAvg speedWind from/ knotsBaromVisibWave heightAir tempDewpointWater temp
2014-Dec-19 22:30N 47°35' W 122°22'2 1.9
2014-Dec-19 21:33N 47°33' W 122°20'0 0.0
2014-Dec-19 20:34N 47°33' W 122°21'0 0.0
2014-Dec-19 19:34N 47°33' W 122°21'0 0.0
2014-Dec-19 18:33N 47°33' W 122°21'0 0.0
2014-Dec-19 17:34N 47°33' W 122°21'0 0.0
2014-Dec-19 16:33N 47°33' W 122°21'0 0.0
2014-Dec-19 15:33N 47°33' W 122°21'0 0.0
2014-Dec-19 14:34N 47°33' W 122°21'0 0.0
2014-Dec-19 07:27N 47°33' W 122°21'0 0.0
2014-Dec-19 06:33N 47°33' W 122°21'0 0.0
2014-Dec-19 05:33N 47°33' W 122°21'0 0.0
2014-Dec-19 04:33N 47°33' W 122°21'0 0.0
2014-Dec-19 03:28N 47°33' W 122°21'0 0.0
2014-Dec-19 02:27N 47°33' W 122°21'0 0.0
2014-Dec-19 01:32N 47°33' W 122°21'0 0.0
2014-Dec-19 00:32N 47°33' W 122°21'0 0.0
2014-Dec-18 23:23N 47°33' W 122°21'0 0.0
2014-Dec-18 22:32N 47°33' W 122°21'0 0.0
2014-Dec-18 21:33N 47°33' W 122°21'0 0.0
2014-Dec-18 20:30N 47°33' W 122°21'0 0.0
2014-Dec-18 19:27N 47°33' W 122°21'0 0.0
2014-Dec-18 18:32N 47°33' W 122°21'0 0.0
2014-Dec-18 17:32N 47°33' W 122°21'0 0.0
2014-Dec-18 16:32N 47°33' W 122°21'0 0.0
2014-Dec-18 15:32N 47°33' W 122°21'0 0.0
2014-Dec-18 14:33N 47°33' W 122°21'0 0.0
2014-Dec-18 13:32N 47°33' W 122°21'0 0.0
2014-Dec-18 12:29N 47°33' W 122°21'0 0.0
2014-Dec-18 11:32N 47°33' W 122°21'0 0.0
2014-Dec-18 10:30N 47°33' W 122°21'0 0.0
2014-Dec-18 09:32N 47°33' W 122°21'0 0.0
2014-Dec-18 08:31N 47°33' W 122°21'0 0.0
2014-Dec-18 07:33N 47°33' W 122°21'0 0.0
2014-Dec-18 06:22N 47°33' W 122°21'0 0.0
2014-Dec-18 05:23N 47°33' W 122°21'0 0.0
2014-Dec-18 04:32N 47°33' W 122°21'0 0.0
2014-Dec-18 02:28N 47°33' W 122°21'0 0.0
2014-Dec-18 01:30N 47°33' W 122°21'0 0.0
2014-Dec-18 00:33N 47°33' W 122°21'0 0.0
2014-Dec-17 23:33N 47°33' W 122°21'0 0.0
2014-Dec-17 22:33N 47°33' W 122°21'0 0.0
2014-Dec-17 21:32N 47°33' W 122°21'0 0.0
2014-Dec-17 20:33N 47°33' W 122°21'0 0.0
2014-Dec-17 19:32N 47°33' W 122°21'0 0.0
2014-Dec-17 18:26N 47°33' W 122°21'0 0.2
2014-Dec-17 17:33N 47°34' W 122°21'1 1.2
2014-Dec-17 16:31N 47°35' W 122°22'2 1.0
2014-Dec-17 14:33N 47°36' W 122°21'3 3.1
2014-Dec-17 13:33N 47°33' W 122°21'0 0.0
2014-Dec-17 12:33N 47°33' W 122°21'0 0.0
2014-Dec-17 11:33N 47°33' W 122°21'0 0.0
2014-Dec-17 10:33N 47°33' W 122°21'0 0.0
2014-Dec-17 09:33N 47°33' W 122°21'0 0.0
2014-Dec-17 08:32N 47°33' W 122°21'0 0.0
2014-Dec-17 07:33N 47°33' W 122°21'0 0.0
2014-Dec-17 06:32N 47°33' W 122°21'0 0.0
2014-Dec-17 05:32N 47°33' W 122°21'0 0.0
2014-Dec-17 04:33N 47°33' W 122°21'0 0.0
2014-Dec-17 03:33N 47°33' W 122°21'0 0.0
2014-Dec-17 02:33N 47°33' W 122°21'0 0.0
2014-Dec-17 01:33N 47°33' W 122°21'0 0.0
2014-Dec-17 00:33N 47°33' W 122°21'0 0.0
2014-Dec-16 23:33N 47°33' W 122°21'0 0.0
2014-Dec-16 22:33N 47°33' W 122°21'0 0.0
2014-Dec-16 21:32N 47°33' W 122°21'0 0.0
2014-Dec-16 20:31N 47°33' W 122°21'0 0.0
2014-Dec-16 19:33N 47°33' W 122°21'0 0.0
2014-Dec-16 18:32N 47°33' W 122°21'0 0.0
2014-Dec-16 17:33N 47°33' W 122°21'0 0.0
2014-Dec-16 16:33N 47°33' W 122°21'2 2.3
2014-Dec-16 15:33N 47°36' W 122°21'3 2.9
2014-Dec-16 14:34N 47°33' W 122°20'1 0.6
2014-Dec-16 13:28N 47°33' W 122°21'0 0.0
2014-Dec-16 12:12N 47°33' W 122°21'0 0.0
2014-Dec-16 11:30N 47°33' W 122°21'0 0.0
2014-Dec-16 10:33N 47°33' W 122°21'0 0.0
2014-Dec-16 09:15N 47°33' W 122°21'0 0.0
2014-Dec-16 08:07N 47°33' W 122°21'0 0.0
2014-Dec-16 07:11N 47°33' W 122°21'0 0.0
2014-Dec-16 02:30N 47°33' W 122°21'0 0.0
2014-Dec-16 01:22N 47°33' W 122°21'0 0.0
2014-Dec-15 23:31N 47°33' W 122°21'0 0.0
2014-Dec-15 22:32N 47°33' W 122°21'0 0.0
2014-Dec-15 21:29N 47°33' W 122°21'0 0.0
2014-Dec-15 20:31N 47°33' W 122°21'1 0.8
2014-Dec-15 19:33N 47°33' W 122°20'3 3.1
2014-Dec-15 18:33N 47°36' W 122°21'2 2.3
2014-Dec-15 17:33N 47°34' W 122°21'1 1.3
2014-Dec-15 16:33N 47°32' W 122°20'1 0.4
2014-Dec-15 13:31N 47°33' W 122°21'0 0.0
2014-Dec-15 12:32N 47°33' W 122°21'0 0.0
2014-Dec-15 11:32N 47°33' W 122°21'0 0.0
2014-Dec-15 10:33N 47°33' W 122°21'0 0.0
2014-Dec-15 09:29N 47°33' W 122°21'0 0.0
2014-Dec-15 08:14N 47°33' W 122°21'0 0.0
2014-Dec-15 06:20N 47°33' W 122°21'0 0.0
2014-Dec-15 05:33N 47°33' W 122°21'0 0.0
2014-Dec-15 04:16N 47°33' W 122°21'0 0.0
2014-Dec-15 03:04N 47°33' W 122°21'0 0.0
2014-Dec-15 02:06N 47°33' W 122°21'0 0.0
2014-Dec-15 01:20N 47°33' W 122°21'0 0.0
2014-Dec-15 00:33N 47°33' W 122°21'0 0.0
2014-Dec-14 23:32N 47°33' W 122°21'0 0.0
2014-Dec-14 21:33N 47°33' W 122°21'0 0.0
2014-Dec-14 20:33N 47°33' W 122°21'0 0.0
2014-Dec-14 19:27N 47°33' W 122°21'0 0.0
2014-Dec-14 18:32N 47°33' W 122°21'0 0.0
2014-Dec-14 17:31N 47°33' W 122°21'0 0.0
2014-Dec-14 13:32N 47°33' W 122°21'0 0.0
2014-Dec-14 12:31N 47°33' W 122°21'0 0.0
2014-Dec-14 11:32N 47°33' W 122°21'0 0.0
2014-Dec-14 10:29N 47°33' W 122°21'0 0.0
2014-Dec-14 09:33N 47°33' W 122°21'0 0.0
2014-Dec-14 08:26N 47°33' W 122°21'0 0.0
2014-Dec-14 07:24N 47°33' W 122°21'0 0.0
2014-Dec-14 06:26N 47°33' W 122°21'0 0.0
2014-Dec-14 05:19N 47°33' W 122°21'0 0.0
2014-Dec-14 04:32N 47°33' W 122°21'0 0.0
2014-Dec-14 03:31N 47°33' W 122°21'0 0.0
2014-Dec-14 02:33N 47°33' W 122°21'0 0.0
2014-Dec-14 00:29N 47°33' W 122°21'0 0.0
2014-Dec-13 23:29N 47°33' W 122°21'0 0.0
2014-Dec-13 22:31N 47°33' W 122°21'0 0.0
2014-Dec-13 21:31N 47°33' W 122°21'0 0.0
2014-Dec-13 20:33N 47°33' W 122°21'0 0.0
2014-Dec-13 18:26N 47°33' W 122°21'0 0.0
2014-Dec-13 17:31N 47°33' W 122°21'0 0.0
2014-Dec-13 16:22N 47°33' W 122°21'0 0.0
2014-Dec-13 15:32N 47°33' W 122°21'0 0.0
2014-Dec-13 14:32N 47°33' W 122°21'0 0.0
2014-Dec-13 13:30N 47°33' W 122°21'0 0.0
2014-Dec-13 12:31N 47°33' W 122°21'0 0.0
2014-Dec-13 10:18N 47°33' W 122°21'0 0.0
2014-Dec-13 09:33N 47°33' W 122°21'0 0.0
2014-Dec-13 08:33N 47°33' W 122°21'0 0.0
2014-Dec-13 07:33N 47°33' W 122°21'0 0.0
2014-Dec-13 06:27N 47°33' W 122°21'0 0.0
2014-Dec-13 05:33N 47°33' W 122°21'0 0.0
2014-Dec-13 04:31N 47°33' W 122°21'0 0.0
2014-Dec-13 03:33N 47°33' W 122°21'0 0.0
2014-Dec-13 02:33N 47°33' W 122°21'0 0.0
2014-Dec-13 01:22N 47°33' W 122°21'0 0.0
2014-Dec-13 00:25N 47°33' W 122°21'0 0.0
2014-Dec-12 23:33N 47°33' W 122°21'0 0.0
2014-Dec-12 22:21N 47°33' W 122°21'0 0.0
2014-Dec-12 21:32N 47°33' W 122°21'0 0.0
2014-Dec-12 20:33N 47°33' W 122°21'0 0.0
2014-Dec-12 19:33N 47°33' W 122°21'0 0.0
2014-Dec-12 18:17N 47°33' W 122°21'0 0.0
2014-Dec-12 17:28N 47°33' W 122°21'0 0.0
2014-Dec-12 15:33N 47°33' W 122°21'0 0.0
2014-Dec-12 14:30N 47°33' W 122°21'0 0.0
2014-Dec-12 13:32N 47°33' W 122°21'0 0.0
2014-Dec-12 12:33N 47°33' W 122°21'0 0.0
2014-Dec-12 09:33N 47°33' W 122°21'0 0.0
2014-Dec-12 08:33N 47°33' W 122°21'0 0.0
2014-Dec-12 07:29N 47°33' W 122°21'0 0.0
2014-Dec-12 06:33N 47°33' W 122°21'0 0.0
2014-Dec-12 05:27N 47°33' W 122°21'0 0.0
2014-Dec-12 04:27N 47°33' W 122°21'0 0.0
2014-Dec-12 03:28N 47°33' W 122°21'0 0.0
2014-Dec-12 02:30N 47°33' W 122°21'0 0.0
2014-Dec-12 01:29N 47°33' W 122°21'0 0.0
2014-Dec-12 00:23N 47°33' W 122°21'0 0.0
2014-Dec-11 23:33N 47°33' W 122°21'0 0.0
2014-Dec-11 22:30N 47°33' W 122°21'0 0.0
2014-Dec-11 21:33N 47°33' W 122°21'0 0.0
2014-Dec-11 20:31N 47°33' W 122°21'0 0.0
2014-Dec-11 19:31N 47°33' W 122°21'0 0.0
2014-Dec-11 18:31N 47°33' W 122°21'0 0.0
2014-Dec-11 17:33N 47°33' W 122°21'0 0.0
2014-Dec-11 16:29N 47°33' W 122°21'0 0.0
2014-Dec-11 15:30N 47°33' W 122°21'0 0.0
2014-Dec-11 14:32N 47°33' W 122°21'0 0.0
2014-Dec-11 13:30N 47°33' W 122°21'0 0.0
2014-Dec-11 12:33N 47°33' W 122°21'0 0.0
2014-Dec-11 11:33N 47°33' W 122°21'0 0.0
2014-Dec-11 10:33N 47°33' W 122°21'0 0.0
2014-Dec-11 09:33N 47°33' W 122°21'0 0.0
2014-Dec-11 08:30N 47°33' W 122°21'0 0.0
2014-Dec-11 07:28N 47°33' W 122°21'0 0.0
2014-Dec-11 06:33N 47°33' W 122°21'0 0.0
2014-Dec-11 05:33N 47°33' W 122°21'0 0.0
2014-Dec-11 04:33N 47°33' W 122°21'0 0.0
2014-Dec-11 03:31N 47°33' W 122°21'0 0.0
2014-Dec-11 02:32N 47°33' W 122°21'0 0.0
2014-Dec-11 01:32N 47°33' W 122°21'0 0.0
2014-Dec-11 00:31N 47°33' W 122°21'0 0.0
2014-Dec-10 23:33N 47°33' W 122°21'0 0.0
2014-Dec-10 22:27N 47°33' W 122°21'0 0.0
2014-Dec-10 21:28N 47°33' W 122°21'0 0.0
2014-Dec-10 20:28N 47°33' W 122°21'0 0.0
2014-Dec-10 19:31N 47°33' W 122°21'0 0.0
2014-Dec-10 18:33N 47°33' W 122°21'0 0.0
2014-Dec-10 17:33N 47°33' W 122°21'0 0.0
2014-Dec-10 16:33N 47°33' W 122°21'0 0.0
2014-Dec-10 15:32N 47°33' W 122°21'0 0.0
2014-Dec-10 14:32N 47°33' W 122°21'0 0.0
2014-Dec-10 13:33N 47°33' W 122°21'0 0.0
2014-Dec-10 12:33N 47°33' W 122°21'0 0.0
2014-Dec-10 11:32N 47°33' W 122°21'0 0.0
2014-Dec-10 09:30N 47°33' W 122°21'0 0.0
2014-Dec-10 08:10N 47°33' W 122°21'0 0.0
2014-Dec-10 07:33N 47°33' W 122°21'0 0.0
2014-Dec-10 06:33N 47°33' W 122°21'0 0.0
2014-Dec-10 05:31N 47°33' W 122°21'0 0.0
2014-Dec-10 04:17N 47°33' W 122°21'0 0.0
2014-Dec-10 03:31N 47°33' W 122°21'0 0.0
2014-Dec-10 02:19N 47°33' W 122°21'0 0.0
2014-Dec-10 01:26N 47°33' W 122°21'0 0.0
2014-Dec-10 00:31N 47°33' W 122°21'0 0.0
2014-Dec-09 23:33N 47°33' W 122°21'  

Dump ship's entire track history